Barbeau, Gilles
CanadaManBorn 19552003 – 2017Runner id 14554
Events
94
2003 – 2017
Best pace
9.955
km/h · 2008
Best finish
6th
of 30 · 2007
Distance raced
7,923
km · splits not double-counted
Pace over time
km/h · higher is faster
Pace over time: 94 races from 2003 to 2017, ranging from 3.86 to 11.35 kilometres per hour, where higher is faster. A second, age-graded series is drawn above it; the gap between the two is the age credit.
- Actual pace
- Age-graded pace
Results
| Date | Event | Distance | Result | Pace km/h | Placing |
|---|---|---|---|---|---|
| 2003-07-12 | 30mi | 8:46:15 h | 5.505 | 150/163 | |
| 2004-07-10 | 30mi | 9:30:38 h | 5.076 | 187/196 | |
| 2005-01-01 | 50km | 5:40:00 h | 8.824 | 17/39 | |
| 2005-03-05 | 50km | 6:48:44 h | 7.340 | 30/35 | |
| 2005-03-26 | 50km | 7:18:13 h | 6.846 | 54/73 | |
| 2005-08-13 | 64km | 7:55:12 h | 8.081 | 46/67 | |
| 2005-11-05 | 100km | 12:37:14 h | 7.924 | 34/37 | |
| 2006-03-04 | 50km | 6:34:40 h | 7.601 | 24/26 | |
| 2006-03-18 | Chuckanut 50KUnited States | 50km | 5:47:24 h | 8.636 | 98/242 |
| 2006-03-25 | 100km | 13:14:50 h | 7.549 | 17/25 | |
| 2006-04-08 | Diez Vista 50K Trail RunCanada | 50km | 6:48:30 h | 7.344 | 84/149 |
| 2006-05-06 | 100km | 11:33:28 h | 8.652 | 8/9 | |
| 2006-06-24 | 100mi | 29:42:49 h | 5.416 | 201/210 | |
| 2006-07-08 | 30mi | 8:05:11 h | 5.971 | 124/190 | |
| 2006-08-12 | Stormy Trail RaceCanada | 64km | 7:29:32 h | 8.542 | 40/69 |
| 2006-08-26 | 100mi | 31:20:00 h | 5.136 | 42/43 | |
| 2006-09-03 | Walk in the Park 54KCanada | 54km | 8:33:53 h | 6.305 | 7/14 |
| 2007-01-13 | Bridle Trails Winter Running FestivalUnited States | 50km | 5:13:20 h | 9.574 | 25/44 |
| 2007-02-03 | Pigtails Run 50KUnited States | 50km | 5:04:38 h | 9.848 | 21/44 |
| 2007-02-10 | 50km | 6:58:00 h | 7.177 | 20/35 | |
| 2007-03-03 | 50km | 6:18:03 h | 7.935 | 21/24 | |
| 2007-03-17 | Chuckanut 50KUnited States | 50km | 6:18:20 h | 7.930 | 145/260 |
| 2007-04-13 | 100mi | 27:23:11 h | 5.876 | 6/30 | |
| 2007-04-22 | 50mi | 8:32:31 h | 9.420 | 19/54 | |
| 2007-04-28 | Capitol Peak 50 MilerUnited States | 50mi | 10:55:58 h | 7.360 | 32/36 |
| 2007-05-05 | 100km | 11:41:09 h | 8.557 | 4/6 | |
| 2007-05-19 | Watershed Preserve 12 Hr Trail RaceUnited States | 12h | 93.454 km | 7.788 | 12/56 |
| 2007-05-27 | 50km | 5:30:18 h | 9.083 | 12/30 | |
| 2007-06-02 | 100km | 25:56:00 h | 3.856 | 4/4 | |
| 2007-06-15 | 100mi | 33:49:03 h | 4.759 | 79/81 | |
| 2007-07-07 | Let's Climb a MountainUnited States | 34.3mi | 6:20:54 h | 8.695 | 18/32 |
| 2007-07-14 | 30mi | 9:17:58 h | 5.192 | 179/193 | |
| 2007-07-21 | 100mi | 29:23:23 h | 5.476 | 38/67 | |
| 2007-07-28 | 50mi | 12:16:20 h | 6.557 | 130/144 | |
| 2007-08-10 | 100mi | 27:35:41 h | 5.832 | 10/13 | |
| 2007-08-25 | 100mi | 30:55:00 h | 5.205 | 57/67 | |
| 2007-09-01 | 100mi | 32:32:27 h | 4.946 | 21/31 | |
| 2007-09-08 | 100mi | 35:44:15 h | 4.503 | 155/160 | |
| 2007-11-03 | 100km | 12:24:38 h | 8.058 | 21/27 | |
| 2008-01-12 | Bridle Trails Winter Running FestivalUnited States | 50km | 5:44:37 h | 8.705 | 27/44 |
| 2008-02-03 | Lord Hill Trail RunUnited States | 50km | 6:37:00 h | 7.557 | 23/30 |
| 2008-02-16 | 50km | 7:27:01 h | 6.711 | 42/59 | |
| 2008-03-01 | 50km | 6:15:55 h | 7.980 | 24/31 | |
| 2008-03-15 | Chuckanut 50KUnited States | 50km | 6:28:48 h | 7.716 | 189/294 |
| 2008-03-21 | 100mi | 31:01:00 h | 5.189 | 14/44 | |
| 2008-04-05 | Diez Vista 50K Trail RunCanada | 50km | 6:36:30 h | 7.566 | 71/133 |
| 2008-04-13 | 50mi | 8:04:58 h | 9.955 | 13/50 | |
| 2008-05-10 | 50mi | 12:26:54 h | 6.464 | 25/35 | |
| 2008-05-31 | The 20th Century 100K Trail RunUnited States | 100km | 11:22:41 h | 8.789 | 6/15 |
| 2008-06-07 | 100km | 24:40:00 h | 4.054 | 5/8 | |
| 2008-06-20 | 100mi | 33:55:22 h | 4.744 | 97/98 | |
| 2008-07-12 | 30mi | 8:54:02 h | 5.424 | 167/188 | |
| 2008-07-19 | 100mi | 26:28:05 h | 6.080 | 93/158 | |
| 2008-08-08 | 100mi | 27:13:26 h | 5.912 | 11/18 | |
| 2008-08-23 | 100mi | 31:22:39 h | 5.129 | 72/77 | |
| 2009-01-10 | Bridle Trails Winter Running FestivalUnited States | 50km | 6:07:24 h | 8.165 | 32/50 |
| 2009-03-13 | 100mi | 32:30:00 h | 4.952 | 24/42 | |
| 2009-03-21 | Chuckanut 50KUnited States | 50km | 7:32:04 h | 6.636 | 247/270 |
| 2009-04-18 | Diez Vista 50K Trail RunCanada | 50km | 7:09:27 h | 6.986 | 72/116 |
| 2009-06-06 | Blanchard Mountain Trail UltraUnited States | 50km | 7:42:00 h | 6.494 | 9/17 |
| 2009-07-11 | 30mi | 8:50:20 h | 5.462 | 162/188 | |
| 2009-07-18 | 100mi | 34:01:00 h | 4.731 | 62/64 | |
| 2009-08-07 | 100mi | 28:14:09 h | 5.700 | 17/22 | |
| 2009-09-26 | 100mi | 27:56:28 h | 5.760 | 66/87 | |
| 2010-03-20 | 50km | 6:45:44 h | 7.394 | 250/287 | |
| 2010-04-10 | 50km | 7:29:15 h | 6.678 | 66/91 | |
| 2010-07-10 | 30mi | 9:54:14 h | 4.875 | 190/192 | |
| 2012-06-02 | 50mi | 11:44:22 h | 6.854 | 208/277 | |
| 2012-07-21 | 100mi | 21:37:11 h | 7.444 | 55/218 | |
| 2012-08-05 | Tourne en rond 12 heuresCanada | 12h | 88.400 km | 7.367 | 5/8 |
| 2012-08-18 | 36mi | 9:27:27 h | 6.126 | 31/47 | |
| 2012-09-30 | 50mi | 11:30:23 h | 6.993 | 231/271 | |
| 2012-11-03 | 50mi | 12:07:42 h | 6.635 | 189/236 | |
| 2013-03-30 | 68mi | 20:25:00 h | 5.360 | 91/124 | |
| 2013-05-26 | 50mi | 11:40:54 h | 6.888 | 90/100 | |
| 2013-08-03 | 36mi | 10:08:39 h | 5.711 | 24/31 | |
| 2013-09-07 | 65km | 9:44:45 h | 6.670 | 86/105 | |
| 2013-09-21 | Virgil Crest 50 km UltraUnited States | 50km | 7:23:00 h | 6.772 | 19/26 |
| 2013-09-29 | 50mi | 10:27:24 h | 7.695 | 141/225 | |
| 2013-11-02 | 50mi | 11:22:49 h | 7.071 | 171/252 | |
| 2014-05-25 | 50km | 8:00:41 h | 6.241 | 200/209 | |
| 2014-06-28 | 50km | 7:21:08 h | 6.801 | 78/86 | |
| 2014-08-02 | 36mi | 10:31:37 h | 5.504 | 32/34 | |
| 2014-09-13 | 50mi | 13:38:00 h | 5.902 | 94/104 | |
| 2014-09-28 | 50mi | 12:12:44 h | 6.589 | 195/205 | |
| 2015-04-18 | 50km | 8:21:41 h | 5.980 | 360/399 | |
| 2015-08-01 | 36mi | 10:42:34 h | 5.410 | 32/42 | |
| 2015-09-19 | 65km | 11:35:59 h | 5.604 | 189/194 | |
| 2015-09-27 | 50km | 7:29:37 h | 6.672 | 142/193 | |
| 2016-05-29 | Trail Festival at Pineland FarmsUnited States | 50mi | 11:27:40 h | 7.021 | 110/127 |
| 2016-09-10 | 65km | 9:57:10 h | 6.531 | 142/199 | |
| 2016-09-25 | 50mi | 11:58:15 h | 6.722 | 176/184 | |
| 2017-05-28 | Trail Festival at Pineland FarmsUnited States | 50km | 7:24:40 h | 6.747 | 176/216 |
| 2017-09-09 | 65km | 12:05:29 h | 5.376 | 225/233 |